createdAt,value
2023-02-15T00:02:02.529Z,16.90
2023-02-15T00:05:08.824Z,17.13
2023-02-15T00:08:13.461Z,15.32
2023-02-15T00:11:38.553Z,15.77
2023-02-15T00:14:43.318Z,15.73
2023-02-15T00:17:48.157Z,16.13
2023-02-15T00:20:52.565Z,15.40
2023-02-15T00:23:59.210Z,15.85
2023-02-15T00:27:03.713Z,16.27
2023-02-15T00:30:09.007Z,15.88
2023-02-15T00:33:13.211Z,15.55
2023-02-15T00:36:18.872Z,14.52
2023-02-15T00:39:24.794Z,14.98
2023-02-15T00:42:29.538Z,14.13
2023-02-15T00:45:34.184Z,13.95
2023-02-15T00:48:38.958Z,14.43
2023-02-15T00:51:44.203Z,14.52
2023-02-15T00:54:48.695Z,13.82
2023-02-15T00:57:53.163Z,15.80
2023-02-15T01:01:06.615Z,16.02
2023-02-15T01:04:11.248Z,13.52
2023-02-15T01:07:16.271Z,15.35
2023-02-15T01:10:20.841Z,14.80
2023-02-15T01:13:25.788Z,15.48
2023-02-15T01:16:32.450Z,14.52
2023-02-15T01:19:37.550Z,13.75
2023-02-15T01:22:42.482Z,14.63
2023-02-15T01:25:47.625Z,14.25
2023-02-15T01:28:52.569Z,14.63
2023-02-15T01:31:57.703Z,14.60
2023-02-15T01:35:02.950Z,14.65
2023-02-15T01:38:07.758Z,13.90
2023-02-15T01:41:26.738Z,14.35
2023-02-15T01:45:09.837Z,14.10
2023-02-15T01:48:28.916Z,14.00
2023-02-15T01:51:38.408Z,15.98
2023-02-15T01:54:47.246Z,15.13
2023-02-15T01:57:52.642Z,13.57
2023-02-15T02:01:01.368Z,14.20
2023-02-15T02:04:06.324Z,13.60
2023-02-15T02:07:13.455Z,14.60
2023-02-15T02:10:25.937Z,13.07
2023-02-15T02:13:30.548Z,13.68
2023-02-15T02:17:12.128Z,13.07
2023-02-15T02:20:25.356Z,13.38
2023-02-15T02:24:26.529Z,13.70
2023-02-15T02:27:42.277Z,15.05
2023-02-15T02:31:27.876Z,12.98
2023-02-15T02:35:01.439Z,14.07
2023-02-15T02:39:03.834Z,13.23
2023-02-15T02:42:26.411Z,12.93
2023-02-15T02:45:41.964Z,13.52
2023-02-15T02:48:50.389Z,13.45
2023-02-15T02:52:28.343Z,14.23
2023-02-15T02:56:16.094Z,13.15
2023-02-15T02:59:28.566Z,12.85
2023-02-15T03:02:41.126Z,12.82
2023-02-15T03:05:51.454Z,13.55
2023-02-15T03:09:02.694Z,13.35
2023-02-15T03:12:07.557Z,12.73
2023-02-15T03:15:22.783Z,13.38
2023-02-15T03:18:36.721Z,13.00
2023-02-15T03:25:23.779Z,12.10
2023-02-15T03:28:42.222Z,13.32
2023-02-15T03:31:54.778Z,13.05
2023-02-15T03:34:59.697Z,13.63
2023-02-15T03:38:07.646Z,13.25
2023-02-15T03:41:14.364Z,12.68
2023-02-15T03:44:36.475Z,13.23
2023-02-15T03:47:47.576Z,12.70
2023-02-15T03:51:15.005Z,12.52
2023-02-15T03:54:47.002Z,11.65
2023-02-15T03:58:10.429Z,12.90
2023-02-15T04:01:53.203Z,12.75
2023-02-15T04:04:57.646Z,11.48
2023-02-15T04:08:02.850Z,13.80
2023-02-15T04:11:07.477Z,11.98
2023-02-15T04:14:30.723Z,11.70
2023-02-15T04:17:37.562Z,13.60
2023-02-15T04:21:04.686Z,14.13
2023-02-15T04:24:28.796Z,11.80
2023-02-15T04:30:39.120Z,11.32
2023-02-15T04:33:44.757Z,12.30
2023-02-15T04:36:51.227Z,11.88
2023-02-15T04:39:56.277Z,12.55
2023-02-15T04:43:00.879Z,12.38
2023-02-15T04:46:05.477Z,12.80
2023-02-15T04:49:10.608Z,11.75
2023-02-15T04:52:15.589Z,12.15
2023-02-15T04:55:20.562Z,12.48
2023-02-15T04:58:25.714Z,13.02
2023-02-15T05:01:30.900Z,12.18
2023-02-15T05:04:35.574Z,12.77
2023-02-15T05:07:40.303Z,12.57
2023-02-15T05:10:45.194Z,12.10
2023-02-15T05:13:50.148Z,11.93
2023-02-15T05:16:55.186Z,11.85
2023-02-15T05:19:59.933Z,12.00
2023-02-15T05:23:04.746Z,11.48
2023-02-15T05:26:37.770Z,11.70
2023-02-15T05:29:42.268Z,11.88
2023-02-15T05:32:47.014Z,11.93
2023-02-15T05:35:52.167Z,11.80
2023-02-15T05:38:56.999Z,11.18
2023-02-15T05:42:01.664Z,11.05
2023-02-15T05:45:07.149Z,11.75
2023-02-15T05:48:12.245Z,12.85
2023-02-15T05:51:17.959Z,12.00
2023-02-15T05:54:22.540Z,12.88
2023-02-15T05:57:27.848Z,12.98
2023-02-15T06:00:32.420Z,12.65
2023-02-15T06:03:37.242Z,12.63
2023-02-15T06:06:41.833Z,13.10
2023-02-15T06:09:46.383Z,11.82
2023-02-15T06:12:51.099Z,12.15
2023-02-15T06:15:55.716Z,14.25
2023-02-15T06:19:01.240Z,11.93
2023-02-15T06:22:07.276Z,12.55
2023-02-15T06:25:12.243Z,11.70
2023-02-15T06:28:16.988Z,12.02
2023-02-15T06:31:21.861Z,13.13
2023-02-15T06:34:26.554Z,13.18
2023-02-15T06:37:31.244Z,11.85
2023-02-15T06:40:35.859Z,12.18
2023-02-15T06:43:41.156Z,11.77
2023-02-15T06:46:46.033Z,11.48
2023-02-15T06:49:50.864Z,12.43
2023-02-15T06:52:59.836Z,12.02
2023-02-15T06:56:10.098Z,13.25
2023-02-15T06:59:14.681Z,11.23
2023-02-15T07:02:19.529Z,12.13
2023-02-15T07:05:25.459Z,12.32
2023-02-15T07:08:30.448Z,13.70
2023-02-15T07:11:53.456Z,12.70
2023-02-15T07:14:59.244Z,12.10
2023-02-15T07:18:03.877Z,12.38
2023-02-15T07:21:09.013Z,11.30
2023-02-15T07:24:13.616Z,12.63
2023-02-15T07:27:18.415Z,12.75
2023-02-15T07:30:22.761Z,13.10
2023-02-15T07:33:28.350Z,12.48
2023-02-15T07:36:33.321Z,12.85
2023-02-15T07:39:38.108Z,13.80
2023-02-15T07:42:42.534Z,13.00
2023-02-15T07:45:47.198Z,14.38
2023-02-15T07:48:51.645Z,14.68
2023-02-15T07:51:56.249Z,14.57
2023-02-15T07:55:00.642Z,14.07
2023-02-15T07:58:05.435Z,14.93
2023-02-15T08:01:10.166Z,15.20
2023-02-15T08:04:14.840Z,14.68
2023-02-15T08:07:19.598Z,14.25
2023-02-15T08:10:44.501Z,14.55
2023-02-15T08:17:06.116Z,12.95
2023-02-15T08:20:11.221Z,12.75
2023-02-15T08:23:16.302Z,14.05
2023-02-15T08:26:22.173Z,13.88
2023-02-15T08:29:30.288Z,13.55
2023-02-15T08:32:35.097Z,14.85
2023-02-15T08:35:39.955Z,14.57
2023-02-15T08:38:45.410Z,14.80
2023-02-15T08:41:50.783Z,13.90
2023-02-15T08:44:55.816Z,15.02
2023-02-15T08:48:00.230Z,14.75
2023-02-15T08:51:12.942Z,15.00
2023-02-15T08:54:21.105Z,13.82
2023-02-15T08:57:25.751Z,14.95
2023-02-15T09:00:30.401Z,13.95
2023-02-15T09:03:34.986Z,15.25
2023-02-15T09:06:41.035Z,14.27
2023-02-15T09:09:46.723Z,14.05
2023-02-15T09:12:52.162Z,14.30
2023-02-15T09:16:06.223Z,13.80
2023-02-15T09:19:10.808Z,15.00
2023-02-15T09:22:15.828Z,13.70
2023-02-15T09:25:21.151Z,13.20
2023-02-15T09:28:25.974Z,14.65
2023-02-15T09:31:34.716Z,13.50
2023-02-15T09:34:39.203Z,14.35
2023-02-15T09:37:44.133Z,14.25
2023-02-15T09:41:36.442Z,14.20
2023-02-15T09:45:09.236Z,14.35
2023-02-15T09:48:19.671Z,14.82
2023-02-15T09:51:45.248Z,15.20
2023-02-15T09:55:23.104Z,13.38
2023-02-15T09:59:00.076Z,14.02
2023-02-15T10:02:28.289Z,13.95
2023-02-15T10:06:18.702Z,13.00
2023-02-15T10:09:54.552Z,13.75
2023-02-15T10:13:19.090Z,12.90
2023-02-15T10:16:57.268Z,13.95
2023-02-15T10:20:36.607Z,14.73
2023-02-15T10:24:09.691Z,14.25
2023-02-15T10:27:21.022Z,14.73
2023-02-15T10:30:36.287Z,13.95
2023-02-15T10:33:43.828Z,13.40
2023-02-15T10:37:14.235Z,14.00
2023-02-15T10:40:52.493Z,14.95
2023-02-15T10:44:09.774Z,13.18
2023-02-15T10:47:39.780Z,14.25
2023-02-15T10:50:58.100Z,12.77
2023-02-15T10:54:56.757Z,12.05
2023-02-15T10:58:25.765Z,11.45
2023-02-15T11:02:11.685Z,11.95
2023-02-15T11:05:39.276Z,10.85
2023-02-15T11:08:57.167Z,11.45
2023-02-15T11:12:02.327Z,11.80
2023-02-15T11:15:34.128Z,11.55
2023-02-15T11:18:44.870Z,13.93
2023-02-15T11:22:00.407Z,12.93
2023-02-15T11:25:31.173Z,12.85
2023-02-15T11:28:44.159Z,12.27
2023-02-15T11:31:57.732Z,12.00
2023-02-15T11:35:19.639Z,13.05
2023-02-15T11:38:30.893Z,11.13
2023-02-15T11:41:45.644Z,15.85
2023-02-15T11:45:28.317Z,13.27
2023-02-15T11:48:33.386Z,13.30
2023-02-15T11:51:38.374Z,12.63
2023-02-15T11:54:47.563Z,11.68
2023-02-15T11:57:57.591Z,11.68
2023-02-15T12:01:34.254Z,13.80
2023-02-15T12:04:45.265Z,14.20
2023-02-15T12:08:24.987Z,13.35
2023-02-15T12:11:39.785Z,12.13
2023-02-15T12:15:08.773Z,12.45
2023-02-15T12:18:38.352Z,13.80
2023-02-15T12:21:43.326Z,13.82
2023-02-15T12:24:49.786Z,15.82
2023-02-15T12:27:54.422Z,17.95
2023-02-15T12:31:00.612Z,14.40
2023-02-15T12:34:27.266Z,14.68
2023-02-15T12:37:35.723Z,15.48
2023-02-15T12:40:41.349Z,17.83
2023-02-15T12:43:46.404Z,18.30
2023-02-15T12:47:01.983Z,17.38
2023-02-15T12:50:17.874Z,16.08
2023-02-15T12:53:35.918Z,17.70
2023-02-15T12:56:40.575Z,19.30
2023-02-15T12:59:51.174Z,16.08
2023-02-15T13:03:00.799Z,18.58
2023-02-15T13:06:08.371Z,19.45
2023-02-15T13:09:19.360Z,17.65
2023-02-15T13:12:27.558Z,19.25
2023-02-15T13:15:41.778Z,16.20
2023-02-15T13:21:55.110Z,20.23
2023-02-15T13:25:10.121Z,18.05
2023-02-15T13:28:17.654Z,19.73
2023-02-15T13:31:28.764Z,17.73
2023-02-15T13:34:37.876Z,17.85
2023-02-15T13:38:04.837Z,17.25
2023-02-15T13:41:46.014Z,17.70
2023-02-15T13:44:59.864Z,17.40
2023-02-15T13:48:13.930Z,19.00
2023-02-15T13:55:38.943Z,16.50
2023-02-15T13:59:09.459Z,16.35
2023-02-15T14:02:59.312Z,13.75
2023-02-15T14:06:41.070Z,19.80
2023-02-15T14:10:03.986Z,19.48
2023-02-15T14:13:45.653Z,17.48
2023-02-15T14:17:24.375Z,16.55
2023-02-15T14:21:15.058Z,16.48
2023-02-15T14:24:41.881Z,14.57
2023-02-15T14:28:17.574Z,14.85
2023-02-15T14:31:43.720Z,16.00
2023-02-15T14:35:01.934Z,14.68
2023-02-15T14:38:44.143Z,14.60
2023-02-15T14:41:58.398Z,13.27
2023-02-15T14:45:24.013Z,15.27
2023-02-15T14:48:38.869Z,14.82
2023-02-15T14:51:46.881Z,14.57
2023-02-15T14:54:55.172Z,15.85
2023-02-15T14:57:59.919Z,15.30
2023-02-15T15:01:12.101Z,14.50
2023-02-15T15:04:29.642Z,19.20
2023-02-15T15:07:54.803Z,16.08
2023-02-15T15:11:42.853Z,16.02
2023-02-15T15:14:49.889Z,14.98
2023-02-15T15:18:09.616Z,15.20
2023-02-15T15:21:49.545Z,15.80
2023-02-15T15:24:59.864Z,15.32
2023-02-15T15:28:05.552Z,16.80
2023-02-15T15:31:37.912Z,15.93
2023-02-15T15:35:24.620Z,14.55
2023-02-15T15:39:03.029Z,15.18
2023-02-15T15:42:47.162Z,15.02
2023-02-15T15:46:36.721Z,15.50
2023-02-15T15:49:41.830Z,15.07
2023-02-15T15:52:59.924Z,14.60
2023-02-15T15:56:11.328Z,15.15
2023-02-15T15:59:25.971Z,16.15
2023-02-15T16:02:30.289Z,15.70
2023-02-15T16:05:40.932Z,14.35
2023-02-15T16:08:45.772Z,14.95
2023-02-15T16:12:02.724Z,15.63
2023-02-15T16:15:46.165Z,14.75
2023-02-15T16:18:52.684Z,14.50
2023-02-15T16:21:59.950Z,16.23
2023-02-15T16:25:41.524Z,16.05
2023-02-15T16:28:54.969Z,15.13
2023-02-15T16:32:06.710Z,16.50
2023-02-15T16:35:20.681Z,14.70
2023-02-15T16:38:43.721Z,15.70
2023-02-15T16:41:50.169Z,14.75
2023-02-15T16:44:57.650Z,15.00
2023-02-15T16:48:06.801Z,15.88
2023-02-15T16:51:19.650Z,16.02
2023-02-15T16:54:26.460Z,15.45
2023-02-15T16:57:39.083Z,15.80
2023-02-15T17:00:44.363Z,16.05
2023-02-15T17:04:13.555Z,15.73
2023-02-15T17:07:20.753Z,17.23
2023-02-15T17:10:37.409Z,18.73
2023-02-15T17:14:05.739Z,17.67
2023-02-15T17:17:19.529Z,24.20
2023-02-15T17:23:41.688Z,19.92
2023-02-15T17:26:54.152Z,18.10
2023-02-15T17:30:18.003Z,17.35
2023-02-15T17:36:34.946Z,15.43
2023-02-15T17:39:41.338Z,16.48
2023-02-15T17:42:45.668Z,16.83
2023-02-15T17:45:52.172Z,16.25
2023-02-15T17:48:57.038Z,17.60
2023-02-15T17:52:02.713Z,20.75
2023-02-15T17:55:35.503Z,28.33
2023-02-15T17:58:40.274Z,27.23
2023-02-15T18:02:08.642Z,28.48
2023-02-15T18:05:33.203Z,23.98
2023-02-15T18:12:02.146Z,18.80
2023-02-15T18:15:10.889Z,17.13
2023-02-15T18:18:17.624Z,18.42
2023-02-15T18:21:24.586Z,17.25
2023-02-15T18:24:29.523Z,17.85
2023-02-15T18:27:34.386Z,17.58
2023-02-15T18:30:43.248Z,17.10
2023-02-15T18:33:55.948Z,16.60
2023-02-15T18:37:03.517Z,17.77
2023-02-15T18:40:16.924Z,16.85
2023-02-15T18:43:21.588Z,16.50
2023-02-15T18:46:26.544Z,17.83
2023-02-15T18:49:31.587Z,18.88
2023-02-15T18:52:38.341Z,17.95
2023-02-15T18:55:43.427Z,23.85
2023-02-15T18:58:49.249Z,21.60
2023-02-15T19:01:55.670Z,24.65
2023-02-15T19:05:00.531Z,27.70
2023-02-15T19:08:05.254Z,26.25
2023-02-15T19:11:23.252Z,23.63
2023-02-15T19:14:33.309Z,24.60
2023-02-15T19:17:38.223Z,22.08
2023-02-15T19:20:46.540Z,20.25
2023-02-15T19:24:03.503Z,20.70
2023-02-15T19:27:23.978Z,18.58
2023-02-15T19:30:31.514Z,18.40
2023-02-15T19:33:35.858Z,22.30
2023-02-15T19:36:41.031Z,24.05
2023-02-15T19:39:45.738Z,25.30
2023-02-15T19:42:51.440Z,24.67
2023-02-15T19:45:56.320Z,24.48
2023-02-15T19:49:00.990Z,25.55
2023-02-15T19:52:06.296Z,20.52
2023-02-15T19:55:35.316Z,20.27
2023-02-15T19:58:39.961Z,19.95
2023-02-15T20:01:44.700Z,22.95
2023-02-15T20:04:49.370Z,19.63
2023-02-15T20:07:54.898Z,19.05
2023-02-15T20:10:59.937Z,18.15
2023-02-15T20:14:10.153Z,18.33
2023-02-15T20:17:14.799Z,17.35
2023-02-15T20:20:21.443Z,18.15
2023-02-15T20:23:32.430Z,17.17
2023-02-15T20:26:37.546Z,16.75
2023-02-15T20:29:42.318Z,16.02
2023-02-15T20:32:48.220Z,17.90
2023-02-15T20:35:53.091Z,17.60
2023-02-15T20:39:03.455Z,17.15
2023-02-15T20:42:13.243Z,18.20
2023-02-15T20:45:27.345Z,18.20
2023-02-15T20:48:32.221Z,16.85
2023-02-15T20:51:37.564Z,18.73
2023-02-15T20:54:42.540Z,19.58
2023-02-15T20:57:47.915Z,17.45
2023-02-15T21:00:53.751Z,17.90
2023-02-15T21:03:58.404Z,16.40
2023-02-15T21:07:03.012Z,19.48
2023-02-15T21:10:13.946Z,19.23
2023-02-15T21:13:23.618Z,21.73
2023-02-15T21:16:28.425Z,21.52
2023-02-15T21:19:33.107Z,22.73
2023-02-15T21:22:38.198Z,23.20
2023-02-15T21:25:44.787Z,20.27
2023-02-15T21:28:50.600Z,19.50
2023-02-15T21:31:58.421Z,20.15
2023-02-15T21:35:03.819Z,20.88
2023-02-15T21:38:15.544Z,21.77
2023-02-15T21:42:02.334Z,22.38
2023-02-15T21:45:38.444Z,22.42
2023-02-15T21:48:43.299Z,22.08
2023-02-15T21:52:07.995Z,21.40
2023-02-15T21:55:15.847Z,26.23
2023-02-15T21:58:25.869Z,36.30
2023-02-15T22:01:30.309Z,32.75
2023-02-15T22:04:34.943Z,34.38
2023-02-15T22:07:39.482Z,29.88
2023-02-15T22:10:45.019Z,25.83
2023-02-15T22:13:50.518Z,24.85
2023-02-15T22:16:54.843Z,21.08
2023-02-15T22:19:59.550Z,23.38
2023-02-15T22:23:04.190Z,25.67
2023-02-15T22:26:26.669Z,27.58
2023-02-15T22:29:32.000Z,28.05
2023-02-15T22:32:36.812Z,25.88
2023-02-15T22:35:41.149Z,24.15
2023-02-15T22:38:45.767Z,24.17
2023-02-15T22:41:54.582Z,24.92
2023-02-15T22:44:59.623Z,24.02
2023-02-15T22:48:04.403Z,22.52
2023-02-15T22:51:14.014Z,24.50
2023-02-15T22:54:19.572Z,22.15
2023-02-15T22:57:31.186Z,21.90
2023-02-15T23:00:40.222Z,21.70
2023-02-15T23:03:44.714Z,23.98
2023-02-15T23:06:50.201Z,22.30
2023-02-15T23:09:54.735Z,21.63
2023-02-15T23:13:19.187Z,21.75
2023-02-15T23:16:23.545Z,23.90
2023-02-15T23:19:29.023Z,23.20
2023-02-15T23:22:33.252Z,21.88
2023-02-15T23:25:37.908Z,21.73
2023-02-15T23:28:42.633Z,21.30
2023-02-15T23:31:51.483Z,22.52
2023-02-15T23:34:56.438Z,21.40
2023-02-15T23:38:00.736Z,22.63
2023-02-15T23:41:20.119Z,22.27
2023-02-15T23:44:25.300Z,22.25
2023-02-15T23:47:52.649Z,20.13
2023-02-15T23:50:59.377Z,22.27
2023-02-15T23:54:03.924Z,22.25
2023-02-15T23:57:12.839Z,21.17
